Time;durP1;ratioP1;P1;durP2;ratioP2;P2;SDS_P1;SDS_P2;PMS_P1;PMS_P2;Temp;Humidity;BMP_temperature;BMP_pressure;BME280_temperature;BME280_humidity;BME280_pressure;Samples;Min_cycle;Max_cycle;Signal;HPM_P1;HPM_P2
2021/07/11 00:01:47;169203.00;0.56;292.89;68448.00;0.23;119.08;;;;;22.10;1.00;;;;;;2268661;61;1915;-87
2021/07/11 00:04:14;244738.00;0.82;422.90;80663.00;0.27;140.18;;;;;22.20;1.00;;;;;;2268685;61;1145;-86
2021/07/11 00:06:41;176813.00;0.59;306.00;71246.00;0.24;123.91;;;;;22.30;1.00;;;;;;2268667;61;1087;-86
2021/07/11 00:09:12;166917.00;0.56;288.96;70160.00;0.23;122.04;;;;;22.30;1.00;;;;;;2268662;61;1107;-87
2021/07/11 00:11:39;322987.00;1.08;557.43;72306.00;0.24;125.75;;;;;22.50;1.00;;;;;;2267950;61;1695;-88
2021/07/11 00:14:06;179396.00;0.60;310.45;68559.00;0.23;119.27;;;;;22.30;1.00;;;;;;2268663;61;1123;-87
2021/07/11 00:16:34;168508.00;0.56;291.70;70423.00;0.23;122.49;;;;;22.00;1.00;;;;;;2268658;61;956;-87
2021/07/11 00:19:02;168550.00;0.56;291.77;73059.00;0.24;127.05;;;;;22.40;1.00;;;;;;2268600;61;939;-87
2021/07/11 00:21:29;201852.00;0.67;349.11;69210.00;0.23;120.40;;;;;22.40;1.00;;;;;;2268590;61;1260;-87
2021/07/11 00:23:56;359346.00;1.20;619.92;109084.00;0.36;189.25;;;;;22.10;1.00;;;;;;2268581;61;1982;-88
2021/07/11 00:26:24;334209.00;1.11;576.72;89191.00;0.30;154.91;;;;;22.20;1.00;;;;;;2268368;61;1033;-87
2021/07/11 00:28:51;167170.00;0.56;289.39;66731.00;0.22;116.11;;;;;22.00;1.00;;;;;;2268591;61;1048;-87
2021/07/11 00:31:18;168400.00;0.56;291.51;63237.00;0.21;110.07;;;;;21.60;1.00;;;;;;2268581;61;1428;-87
2021/07/11 00:33:45;204910.00;0.68;354.38;67853.00;0.23;118.05;;;;;21.80;1.00;;;;;;2268577;61;1078;-87
2021/07/11 00:36:11;219368.00;0.73;379.26;79402.00;0.26;138.00;;;;;21.90;1.00;;;;;;2268580;61;1058;-87
2021/07/11 00:38:38;179219.00;0.60;310.14;65330.00;0.22;113.69;;;;;22.10;1.00;;;;;;2268604;61;904;-88
2021/07/11 00:41:05;170390.00;0.57;294.94;74011.00;0.25;128.69;;;;;22.10;1.00;;;;;;2268497;61;1309;-87
2021/07/11 00:43:34;165804.00;0.55;287.04;73668.00;0.25;128.10;;;;;21.90;1.00;;;;;;2268571;61;1985;-87
2021/07/11 00:46:01;169578.00;0.57;293.54;76890.00;0.26;133.66;;;;;21.80;1.00;;;;;;2268558;61;1127;-86
2021/07/11 00:48:28;169666.00;0.57;293.69;75852.00;0.25;131.87;;;;;21.90;1.00;;;;;;2268531;61;1172;-87
2021/07/11 00:50:57;164987.00;0.55;285.63;68304.00;0.23;118.83;;;;;22.10;1.00;;;;;;2268524;61;1311;-86
2021/07/11 00:53:24;234323.00;0.78;404.99;68191.00;0.23;118.63;;;;;22.00;1.00;;;;;;2268544;61;1146;-87
2021/07/11 00:55:51;243216.00;0.81;420.28;72098.00;0.24;125.39;;;;;21.50;1.00;;;;;;2268531;61;1087;-87
2021/07/11 00:58:18;166587.00;0.56;288.39;68485.00;0.23;119.14;;;;;21.60;1.00;;;;;;2268525;61;1103;-87
2021/07/11 01:00:49;278274.00;0.93;480.57;94434.00;0.31;163.96;;;;;21.70;1.00;;;;;;2268489;61;1385;-89
2021/07/11 01:03:25;272546.00;0.91;470.72;60710.00;0.20;105.70;;;;;21.80;1.00;;;;;;2268398;61;2004;-87
2021/07/11 01:05:53;205278.00;0.68;355.01;61122.00;0.20;106.42;;;;;22.00;1.00;;;;;;2268438;61;1115;-88
2021/07/11 01:08:34;179590.00;0.60;310.78;66743.00;0.22;116.13;;;;;22.20;1.00;;;;;;2268391;61;1005;-88
2021/07/11 01:11:04;287845.00;0.96;497.02;69966.00;0.23;121.70;;;;;22.20;1.00;;;;;;2268457;61;1447;-86
2021/07/11 01:13:34;499483.00;1.66;860.93;167347.00;0.56;289.70;;;;;22.30;1.00;;;;;;2259901;61;1600;-86
2021/07/11 01:16:07;175326.00;0.58;303.44;76975.00;0.26;133.81;;;;;22.30;1.00;;;;;;2259976;61;1144;-88
2021/07/11 01:18:38;193724.00;0.65;335.12;70146.00;0.23;122.01;;;;;22.20;1.00;;;;;;2259985;61;1077;-87
2021/07/11 01:21:09;164489.00;0.55;284.77;62278.00;0.21;108.41;;;;;22.20;1.00;;;;;;2259956;61;1324;-87
2021/07/11 01:23:42;472184.00;1.57;813.95;161982.00;0.54;280.45;;;;;22.30;1.00;;;;;;2253325;61;2011;-88
2021/07/11 01:26:12;175707.00;0.59;304.10;62723.00;0.21;109.18;;;;;22.40;1.00;;;;;;2260024;61;1041;-86
2021/07/11 01:28:40;192510.00;0.64;333.03;76697.00;0.26;133.33;;;;;22.40;1.00;;;;;;2253355;61;953;-87
2021/07/11 01:31:09;179578.00;0.60;310.76;70178.00;0.23;122.07;;;;;22.50;1.00;;;;;;2262235;61;1363;-87
2021/07/11 01:33:39;169124.00;0.56;292.76;75914.00;0.25;131.98;;;;;22.30;1.00;;;;;;2269166;61;938;-87
2021/07/11 01:36:07;171459.00;0.57;296.78;76519.00;0.26;133.02;;;;;22.30;1.00;;;;;;2269144;61;1125;-88
2021/07/11 01:38:36;177352.00;0.59;306.93;65935.00;0.22;114.74;;;;;22.20;1.00;;;;;;2269084;61;1799;-88
2021/07/11 01:41:05;276922.00;0.92;478.25;99209.00;0.33;172.21;;;;;22.30;1.00;;;;;;2268972;61;1378;-88
2021/07/11 01:43:35;201543.00;0.67;348.58;65802.00;0.22;114.51;;;;;22.50;1.00;;;;;;2269092;61;1977;-88
2021/07/11 01:46:05;186401.00;0.62;322.51;74650.00;0.25;129.79;;;;;22.40;1.00;;;;;;2269143;61;998;-88
2021/07/11 01:48:33;223073.00;0.74;385.63;78879.00;0.26;137.10;;;;;22.10;1.00;;;;;;2269112;61;1044;-88
2021/07/11 01:51:01;292310.00;0.97;504.70;102493.00;0.34;177.87;;;;;21.70;1.00;;;;;;2268853;61;1434;-88
2021/07/11 01:53:31;188819.00;0.63;326.68;67921.00;0.23;118.17;;;;;21.50;1.00;;;;;;2269090;61;1127;-88
2021/07/11 01:55:59;278882.00;0.93;481.62;75096.00;0.25;130.57;;;;;21.40;1.00;;;;;;2269099;61;951;-88
2021/07/11 01:58:26;311422.00;1.04;537.55;70251.00;0.23;122.19;;;;;21.30;1.00;;;;;;2269050;61;1130;-87
2021/07/11 02:00:55;584642.00;1.95;1007.71;113156.00;0.38;196.28;;;;;21.30;1.00;;;;;;2269066;61;1388;-87
2021/07/11 02:03:25;546075.00;1.82;941.19;94625.00;0.32;164.29;;;;;21.30;1.00;;;;;;2261998;61;1927;-89
2021/07/11 02:05:53;320756.00;1.07;553.60;76365.00;0.25;132.76;;;;;21.30;1.00;;;;;;2269070;61;982;-89
2021/07/11 02:08:22;330680.00;1.10;570.65;73682.00;0.25;128.12;;;;;21.20;1.00;;;;;;2269114;61;1020;-88
2021/07/11 02:10:52;368996.00;1.23;636.51;73639.00;0.25;128.05;;;;;21.10;1.00;;;;;;2269064;61;1448;-88
2021/07/11 02:13:25;302004.00;1.01;521.36;43909.00;0.15;76.65;;;;;21.20;1.00;;;;;;2269049;61;1015;-87
2021/07/11 02:15:57;123072.00;0.41;213.38;42463.00;0.14;74.15;;;;;21.50;1.00;;;;;;2269049;61;914;-87
2021/07/11 02:18:27;212547.00;0.71;367.52;25163.00;0.08;44.21;;;;;21.50;1.00;;;;;;2269026;61;1064;-88
2021/07/11 02:20:56;117238.00;0.39;203.32;0.00;0.00;0.62;;;;;21.30;1.00;;;;;;2265220;61;1428;-88
2021/07/11 02:23:25;195291.00;0.65;337.82;83220.00;0.28;144.60;;;;;21.00;1.00;;;;;;2268914;61;2002;-89
2021/07/11 02:25:53;300949.00;1.00;519.55;67699.00;0.23;117.78;;;;;21.00;1.00;;;;;;2269050;61;1065;-89
2021/07/11 02:28:21;252252.00;0.84;435.82;71909.00;0.24;125.06;;;;;21.00;1.00;;;;;;2268981;61;1119;-88
2021/07/11 02:30:55;139787.00;0.47;242.20;0.00;0.00;0.62;;;;;21.10;1.00;;;;;;2268901;61;1305;-89
2021/07/11 02:33:31;84680.00;0.28;147.12;0.00;0.00;0.62;;;;;21.20;1.00;;;;;;2268972;61;1080;-88
2021/07/11 02:36:01;48027.00;0.16;83.77;0.00;0.00;0.62;;;;;21.20;1.00;;;;;;2268909;61;1877;-89
2021/07/11 02:38:36;68069.00;0.23;118.42;0.00;0.00;0.62;;;;;21.20;1.00;;;;;;2268943;61;1091;-88
2021/07/11 02:41:04;105849.00;0.35;183.67;0.00;0.00;0.62;;;;;21.00;1.00;;;;;;2268849;61;1506;-88
2021/07/11 02:43:32;23141.00;0.08;40.71;0.00;0.00;0.62;;;;;21.10;1.00;;;;;;2268916;61;2025;-89
2021/07/11 02:46:02;231781.00;0.77;400.61;47127.00;0.16;82.22;;;;;21.20;1.00;;;;;;2268950;61;1015;-89
2021/07/11 02:48:31;149270.00;0.50;258.55;0.00;0.00;0.62;;;;;21.30;1.00;;;;;;2268893;61;1155;-88
2021/07/11 02:50:59;690478.00;2.30;1190.73;161075.00;0.54;278.89;;;;;21.40;1.00;;;;;;2268872;61;1320;-89
2021/07/11 02:53:28;96448.00;0.32;167.44;0.00;0.00;0.62;;;;;21.40;1.00;;;;;;2268878;61;1127;-88
2021/07/11 02:55:58;90345.00;0.30;156.90;0.00;0.00;0.62;;;;;21.30;1.00;;;;;;2268864;61;1700;-87
2021/07/11 02:58:27;110637.00;0.37;191.93;0.00;0.00;0.62;;;;;21.40;1.00;;;;;;2268883;61;1075;-87
2021/07/11 03:00:55;708049.00;2.36;1221.20;124880.00;0.42;216.50;;;;;21.40;1.00;;;;;;2268863;61;1314;-87
2021/07/11 03:03:24;302215.00;1.01;521.73;76645.00;0.26;133.24;;;;;21.50;1.00;;;;;;2268805;61;1912;-88
2021/07/11 03:05:54;297341.00;0.99;513.35;0.00;0.00;0.62;;;;;21.60;1.00;;;;;;2268855;61;952;-88
2021/07/11 03:08:21;309896.00;1.03;534.93;17031.00;0.06;30.13;;;;;21.60;1.00;;;;;;2268880;61;923;-87
2021/07/11 03:10:49;152736.00;0.51;264.52;0.00;0.00;0.62;;;;;21.70;1.00;;;;;;2268841;61;1407;-88
2021/07/11 03:13:18;29936.00;0.10;52.47;0.00;0.00;0.62;;;;;21.30;1.00;;;;;;2268836;61;1126;-88
2021/07/11 03:15:45;521191.00;1.74;898.32;141963.00;0.47;245.95;;;;;21.30;1.00;;;;;;2268861;61;905;-88
2021/07/11 03:18:13;166988.00;0.56;289.08;0.00;0.00;0.62;;;;;21.30;1.00;;;;;;2268839;61;987;-88
2021/07/11 03:20:42;205154.00;0.68;354.79;0.00;0.00;0.62;;;;;21.50;1.00;;;;;;2268785;61;1289;-88
2021/07/11 03:23:11;57188.00;0.19;99.62;0.00;0.00;0.62;;;;;21.70;1.00;;;;;;2268764;61;1912;-87
2021/07/11 03:25:39;187121.00;0.62;323.75;4217.00;0.01;7.93;;;;;21.70;1.00;;;;;;2268797;61;1074;-89
2021/07/11 03:28:08;105463.00;0.35;183.00;0.00;0.00;0.62;;;;;21.70;1.00;;;;;;2268786;61;1164;-88
2021/07/11 03:30:43;95867.00;0.32;166.44;0.00;0.00;0.62;;;;;21.60;1.00;;;;;;2268757;61;1322;-89
2021/07/11 03:33:13;16581.00;0.06;29.35;0.00;0.00;0.62;;;;;21.50;1.00;;;;;;2268781;61;918;-87
2021/07/11 03:35:49;48487.00;0.16;84.57;0.00;0.00;0.62;;;;;21.60;1.00;;;;;;2268801;61;879;-88
2021/07/11 03:38:22;72847.00;0.24;126.68;0.00;0.00;0.62;;;;;21.60;1.00;;;;;;2261625;61;936;-88
2021/07/11 03:40:56;88874.00;0.30;154.36;0.00;0.00;0.62;;;;;21.70;1.00;;;;;;2268669;61;1359;-88
2021/07/11 03:43:25;0.00;0.00;0.62;0.00;0.00;0.62;;;;;21.50;1.00;;;;;;2268714;61;2002;-88
2021/07/11 03:45:55;0.00;0.00;0.62;0.00;0.00;0.62;;;;;21.70;1.00;;;;;;2268756;61;1131;-89
2021/07/11 03:48:25;104349.00;0.35;181.08;0.00;0.00;0.62;;;;;21.50;1.00;;;;;;2268739;61;1064;-88
2021/07/11 03:50:56;33959.00;0.11;59.44;0.00;0.00;0.62;;;;;21.40;1.00;;;;;;2268701;61;1384;-88
2021/07/11 03:53:30;0.00;0.00;0.62;0.00;0.00;0.62;;;;;21.50;1.00;;;;;;2268609;61;965;-88
2021/07/11 03:55:58;0.00;0.00;0.62;0.00;0.00;0.62;;;;;21.50;1.00;;;;;;2268710;61;1071;-87
2021/07/11 03:58:26;0.00;0.00;0.62;0.00;0.00;0.62;;;;;21.50;1.00;;;;;;2268709;61;1048;-88
2021/07/11 04:00:54;0.00;0.00;0.62;0.00;0.00;0.62;;;;;21.50;1.00;;;;;;2268628;61;1599;-87
2021/07/11 04:03:24;0.00;0.00;0.62;0.00;0.00;0.62;;;;;21.70;1.00;;;;;;2268668;61;1998;-88
2021/07/11 04:05:52;0.00;0.00;0.62;0.00;0.00;0.62;;;;;21.80;1.00;;;;;;2268686;61;1147;-88
2021/07/11 04:08:23;0.00;0.00;0.62;0.00;0.00;0.62;;;;;21.70;1.00;;;;;;2268656;61;1064;-88
2021/07/11 04:10:51;0.00;0.00;0.62;0.00;0.00;0.62;;;;;21.70;1.00;;;;;;2268656;61;1380;-88
2021/07/11 04:13:18;3929.00;0.01;7.43;0.00;0.00;0.62;;;;;21.90;1.00;;;;;;2268688;61;1054;-88
2021/07/11 04:15:51;0.00;0.00;0.62;0.00;0.00;0.62;;;;;22.00;1.00;;;;;;2268678;61;1158;-87
2021/07/11 04:18:21;0.00;0.00;0.62;0.00;0.00;0.62;;;;;21.80;1.00;;;;;;2268680;61;1099;-88
2021/07/11 04:20:53;0.00;0.00;0.62;0.00;0.00;0.62;;;;;21.70;1.00;;;;;;2268631;61;1406;-88
2021/07/11 04:23:24;0.00;0.00;0.62;0.00;0.00;0.62;;;;;21.70;1.00;;;;;;2268654;61;1982;-88
2021/07/11 04:25:56;1480.00;0.00;3.19;0.00;0.00;0.62;;;;;21.70;1.00;;;;;;2268633;61;1116;-88
2021/07/11 04:28:24;63014.00;0.21;109.69;0.00;0.00;0.62;;;;;21.70;1.00;;;;;;2268634;61;1012;-89
2021/07/11 04:30:52;0.00;0.00;0.62;0.00;0.00;0.62;;;;;21.70;1.00;;;;;;2268591;61;1411;-88
2021/07/11 04:33:19;4522.00;0.02;8.46;0.00;0.00;0.62;;;;;21.70;1.00;;;;;;2268584;61;1035;-89
2021/07/11 04:35:46;0.00;0.00;0.62;0.00;0.00;0.62;;;;;21.70;1.00;;;;;;2268572;61;1107;-89
2021/07/11 04:38:14;0.00;0.00;0.62;0.00;0.00;0.62;;;;;21.80;1.00;;;;;;2268599;61;1077;-88
2021/07/11 04:57:57;6458.00;0.02;11.81;0.00;0.00;0.62;;;;;22.00;1.00;;;;;;2509143;55;3613;31
2021/07/11 06:34:14;0.00;0.00;0.62;0.00;0.00;0.62;;;;;26.30;1.00;;;;;;2473795;40;3544;31
2021/07/11 06:44:05;12611.00;0.04;22.47;0.00;0.00;0.62;;;;;27.50;1.00;;;;;;2271262;61;1882;-88
2021/07/11 07:35:59;687.00;0.00;1.81;0.00;0.00;0.62;;;;;29.60;1.00;;;;;;2499591;55;3707;31
2021/07/11 08:47:49;18312.00;0.06;32.35;0.00;0.00;0.62;;;;;26.10;1.00;;;;;;2501303;55;3604;31
2021/07/11 09:07:36;33513.00;0.11;58.66;0.00;0.00;0.62;;;;;25.90;1.00;;;;;;2494891;41;3471;31
2021/07/11 09:12:31;0.00;0.00;0.62;0.00;0.00;0.62;;;;;26.40;1.00;;;;;;2493611;55;3625;31
2021/07/11 09:32:23;19753.00;0.07;34.84;0.00;0.00;0.62;;;;;27.10;1.00;;;;;;2499069;41;3461;31
2021/07/11 09:34:50;174749.00;0.58;302.45;27345.00;0.09;47.99;;;;;27.20;1.00;;;;;;2501617;55;3975;31
2021/07/11 09:37:17;60764.00;0.20;105.80;0.00;0.00;0.62;;;;;27.00;1.00;;;;;;2498247;55;3755;31
2021/07/11 09:39:48;5856.00;0.02;10.77;0.00;0.00;0.62;;;;;27.20;1.00;;;;;;2498455;55;3715;31
2021/07/11 09:49:40;79810.00;0.27;138.71;0.00;0.00;0.62;;;;;26.60;1.00;;;;;;2502575;40;3496;31
2021/07/11 10:14:31;50939.00;0.17;88.81;0.00;0.00;0.62;;;;;27.30;1.00;;;;;;2500762;40;3414;31
2021/07/11 10:36:42;0.00;0.00;0.62;0.00;0.00;0.62;;;;;24.70;1.00;;;;;;2500433;40;3454;31
2021/07/11 10:44:09;0.00;0.00;0.62;0.00;0.00;0.62;;;;;24.10;1.00;;;;;;2270901;61;1890;-85
2021/07/11 10:46:38;47579.00;0.16;83.00;0.00;0.00;0.62;;;;;23.80;1.00;;;;;;2268901;61;1128;-85
2021/07/11 10:49:16;73113.00;0.24;127.14;0.00;0.00;0.62;;;;;24.00;1.00;;;;;;2268863;61;1119;-85
2021/07/11 10:51:46;11324.00;0.04;20.24;0.00;0.00;0.62;;;;;24.00;1.00;;;;;;2268859;61;1325;-85
2021/07/11 10:54:23;108292.00;0.36;187.88;0.00;0.00;0.62;;;;;24.70;1.00;;;;;;2268873;61;1097;-85
2021/07/11 10:56:50;0.00;0.00;0.62;0.00;0.00;0.62;;;;;25.10;1.00;;;;;;2268818;61;1028;-85
2021/07/11 10:59:32;41313.00;0.14;72.16;0.00;0.00;0.62;;;;;25.20;1.00;;;;;;2268860;61;1123;-85
2021/07/11 11:02:01;0.00;0.00;0.62;0.00;0.00;0.62;;;;;25.10;1.00;;;;;;2268771;61;1427;-86
2021/07/11 11:04:28;0.00;0.00;0.62;0.00;0.00;0.62;;;;;25.40;1.00;;;;;;2268750;61;2002;-83
2021/07/11 11:06:57;0.00;0.00;0.62;0.00;0.00;0.62;;;;;25.90;1.00;;;;;;2268826;61;1143;-83
2021/07/11 11:09:38;0.00;0.00;0.62;0.00;0.00;0.62;;;;;26.20;1.00;;;;;;2268681;61;1157;-83
2021/07/11 11:12:28;0.00;0.00;0.62;0.00;0.00;0.62;;;;;26.70;1.00;;;;;;2268768;61;1371;-83
2021/07/11 11:14:57;0.00;0.00;0.62;0.00;0.00;0.62;;;;;27.10;1.00;;;;;;2267992;61;1153;-83
2021/07/11 11:17:35;18617.00;0.06;32.88;0.00;0.00;0.62;;;;;27.20;1.00;;;;;;2268746;61;1150;-84
2021/07/11 11:20:04;39505.00;0.13;69.03;0.00;0.00;0.62;;;;;27.50;1.00;;;;;;2268764;61;1103;-84
2021/07/11 11:22:33;5857.00;0.02;10.77;0.00;0.00;0.62;;;;;27.50;1.00;;;;;;2268679;61;1372;-83
2021/07/11 11:25:00;0.00;0.00;0.62;0.00;0.00;0.62;;;;;27.30;1.00;;;;;;2268739;61;1990;-83
2021/07/11 11:27:32;168231.00;0.56;291.22;30490.00;0.10;53.43;;;;;27.00;1.00;;;;;;2268738;61;1064;-83
2021/07/11 11:30:09;108457.00;0.36;188.17;0.00;0.00;0.62;;;;;26.90;1.00;;;;;;2268687;61;1055;-83
2021/07/11 11:32:36;0.00;0.00;0.62;0.00;0.00;0.62;;;;;26.20;1.00;;;;;;2268701;61;1372;-84
2021/07/11 11:35:04;111536.00;0.37;193.48;0.00;0.00;0.62;;;;;26.30;1.00;;;;;;2268740;61;931;-83
2021/07/11 11:37:33;52695.00;0.18;91.85;0.00;0.00;0.62;;;;;26.30;1.00;;;;;;2268682;61;1104;-83
2021/07/11 11:40:03;133011.00;0.44;230.52;0.00;0.00;0.62;;;;;26.40;1.00;;;;;;2268698;61;1073;-84
2021/07/11 11:42:30;0.00;0.00;0.62;0.00;0.00;0.62;;;;;26.20;1.00;;;;;;2268611;61;1385;-84
2021/07/11 11:45:05;14583.00;0.05;25.89;0.00;0.00;0.62;;;;;25.70;1.00;;;;;;2268620;61;1994;-85
2021/07/11 11:47:32;127705.00;0.43;221.37;0.00;0.00;0.62;;;;;25.60;1.00;;;;;;2268701;61;1009;-84
2021/07/11 11:50:13;35032.00;0.12;61.29;0.00;0.00;0.62;;;;;26.00;1.00;;;;;;2268668;61;1103;-85
2021/07/11 11:52:42;7289.00;0.02;13.25;0.00;0.00;0.62;;;;;26.40;1.00;;;;;;2268612;61;1772;-85
2021/07/11 11:55:09;0.00;0.00;0.62;0.00;0.00;0.62;;;;;26.20;1.00;;;;;;2268625;61;1042;-84
2021/07/11 11:57:39;0.00;0.00;0.62;0.00;0.00;0.62;;;;;26.20;1.00;;;;;;2268651;61;1080;-85
2021/07/11 12:00:07;0.00;0.00;0.62;0.00;0.00;0.62;;;;;26.60;1.00;;;;;;2268562;61;1025;-84
2021/07/11 12:02:34;11029.00;0.04;19.73;0.00;0.00;0.62;;;;;26.90;1.00;;;;;;2268539;61;1270;-83
2021/07/11 12:05:12;229146.00;0.76;396.08;0.00;0.00;0.62;;;;;26.80;1.00;;;;;;2268614;61;2000;-83
2021/07/11 12:07:41;0.00;0.00;0.62;0.00;0.00;0.62;;;;;27.20;1.00;;;;;;2268645;61;1091;-84
2021/07/11 12:10:13;0.00;0.00;0.62;0.00;0.00;0.62;;;;;27.10;1.00;;;;;;2268594;61;1148;-84
2021/07/11 12:12:40;0.00;0.00;0.62;0.00;0.00;0.62;;;;;27.20;1.00;;;;;;2268548;61;1464;-83
2021/07/11 12:15:08;0.00;0.00;0.62;0.00;0.00;0.62;;;;;27.70;1.00;;;;;;2268434;61;1021;-84
2021/07/11 12:17:35;109252.00;0.36;189.54;0.00;0.00;0.62;;;;;28.00;1.00;;;;;;2261564;61;986;-84
2021/07/11 12:20:02;0.00;0.00;0.62;0.00;0.00;0.62;;;;;28.30;1.00;;;;;;2268533;61;1077;-84
2021/07/11 12:22:31;0.00;0.00;0.62;0.00;0.00;0.62;;;;;28.20;1.00;;;;;;2268554;61;1358;-83
2021/07/11 12:25:09;14145.00;0.05;25.13;0.00;0.00;0.62;;;;;27.80;1.00;;;;;;2268558;61;1921;-84
2021/07/11 12:27:37;6514.00;0.02;11.91;0.00;0.00;0.62;;;;;27.50;1.00;;;;;;2268574;61;1133;-84
2021/07/11 12:30:11;0.00;0.00;0.62;0.00;0.00;0.62;;;;;27.90;1.00;;;;;;2268557;61;1120;-84
2021/07/11 12:32:45;0.00;0.00;0.62;0.00;0.00;0.62;;;;;27.90;1.00;;;;;;2268558;61;1351;-84
2021/07/11 12:35:14;0.00;0.00;0.62;0.00;0.00;0.62;;;;;27.80;1.00;;;;;;2268544;61;1158;-84
2021/07/11 12:37:52;21537.00;0.07;37.93;0.00;0.00;0.62;;;;;27.90;1.00;;;;;;2268526;61;1054;-84
2021/07/11 12:40:22;0.00;0.00;0.62;0.00;0.00;0.62;;;;;28.40;1.00;;;;;;2268514;61;1170;-84
2021/07/11 12:43:00;0.00;0.00;0.62;0.00;0.00;0.62;;;;;28.30;1.00;;;;;;2268448;61;1433;-86
2021/07/11 12:45:27;0.00;0.00;0.62;0.00;0.00;0.62;;;;;28.60;1.00;;;;;;2268421;61;2004;-87
2021/07/11 12:47:54;15881.00;0.05;28.14;0.00;0.00;0.62;;;;;28.70;1.00;;;;;;2268455;61;993;-86
2021/07/11 12:50:32;0.00;0.00;0.62;0.00;0.00;0.62;;;;;28.50;1.00;;;;;;2268441;61;1155;-86
2021/07/11 12:52:59;0.00;0.00;0.62;0.00;0.00;0.62;;;;;29.10;1.00;;;;;;2268472;61;1375;-85
2021/07/11 12:55:28;0.00;0.00;0.62;0.00;0.00;0.62;;;;;29.30;1.00;;;;;;2268501;61;1053;-86
2021/07/11 12:57:55;0.00;0.00;0.62;0.00;0.00;0.62;;;;;28.70;1.00;;;;;;2268481;61;1129;-85
2021/07/11 13:00:28;0.00;0.00;0.62;0.00;0.00;0.62;;;;;28.40;1.00;;;;;;2268467;61;1115;-85
2021/07/11 13:02:59;0.00;0.00;0.62;0.00;0.00;0.62;;;;;27.20;1.00;;;;;;2268462;61;1289;-84
2021/07/11 13:05:34;0.00;0.00;0.62;0.00;0.00;0.62;;;;;26.40;1.00;;;;;;2268421;61;1914;-84
2021/07/11 13:08:06;0.00;0.00;0.62;0.00;0.00;0.62;;;;;26.40;1.00;;;;;;2268469;61;1192;-84
2021/07/11 13:10:35;28440.00;0.09;49.88;0.00;0.00;0.62;;;;;26.60;1.00;;;;;;2268428;61;1072;-85
2021/07/11 13:13:02;103896.00;0.35;180.30;0.00;0.00;0.62;;;;;26.90;1.00;;;;;;2268425;61;1407;-85
2021/07/11 13:15:29;99929.00;0.33;173.45;0.00;0.00;0.62;;;;;27.10;1.00;;;;;;2268440;61;1067;-85
2021/07/11 13:17:56;57220.00;0.19;99.67;0.00;0.00;0.62;;;;;27.80;1.00;;;;;;2268411;61;1116;-84
2021/07/11 13:20:23;48799.00;0.16;85.11;0.00;0.00;0.62;;;;;27.80;1.00;;;;;;2268443;61;1135;-84
2021/07/11 13:22:50;124213.00;0.41;215.35;0.00;0.00;0.62;;;;;28.40;1.00;;;;;;2268400;61;1277;-84
2021/07/11 13:25:17;197434.00;0.66;341.51;0.00;0.00;0.62;;;;;28.80;1.00;;;;;;2268370;61;1995;-84
2021/07/11 13:27:45;159192.00;0.53;275.65;0.00;0.00;0.62;;;;;28.90;1.00;;;;;;2268880;61;1157;-86
2021/07/11 13:30:14;134232.00;0.45;232.63;0.00;0.00;0.62;;;;;29.20;1.00;;;;;;2269092;61;1039;-83
2021/07/11 13:32:42;129873.00;0.43;225.11;0.00;0.00;0.62;;;;;28.90;1.00;;;;;;2269078;61;1304;-84
2021/07/11 13:35:10;14233.00;0.05;25.28;0.00;0.00;0.62;;;;;28.50;1.00;;;;;;2269084;61;1131;-85
2021/07/11 13:37:37;66556.00;0.22;115.81;0.00;0.00;0.62;;;;;28.00;1.00;;;;;;2269122;61;1166;-84
2021/07/11 13:40:07;100410.00;0.33;174.28;0.00;0.00;0.62;;;;;28.30;1.00;;;;;;2269101;61;1039;-84
2021/07/11 13:42:35;112189.00;0.37;194.61;0.00;0.00;0.62;;;;;28.30;1.00;;;;;;2268971;61;1379;-84
2021/07/11 13:45:06;128879.00;0.43;223.40;0.00;0.00;0.62;;;;;28.00;1.00;;;;;;2269026;61;1914;-84
2021/07/11 13:47:34;0.00;0.00;0.62;0.00;0.00;0.62;;;;;27.80;1.00;;;;;;2269072;61;1083;-83
2021/07/11 13:50:02;97255.00;0.32;168.83;0.00;0.00;0.62;;;;;28.20;1.00;;;;;;2269055;61;1094;-84
2021/07/11 13:52:29;22061.00;0.07;38.84;0.00;0.00;0.62;;;;;27.80;1.00;;;;;;2269055;61;1294;-84
2021/07/11 13:54:56;62025.00;0.21;107.98;0.00;0.00;0.62;;;;;28.20;1.00;;;;;;2269016;61;1112;-84
2021/07/11 13:57:23;121774.00;0.41;211.14;0.00;0.00;0.62;;;;;28.40;1.00;;;;;;2269030;61;990;-84
2021/07/11 13:59:49;223834.00;0.75;386.94;0.00;0.00;0.62;;;;;27.80;1.00;;;;;;2268997;61;1150;-84
2021/07/11 14:02:19;98236.00;0.33;170.53;0.00;0.00;0.62;;;;;27.50;1.00;;;;;;2268969;61;1280;-84
2021/07/11 14:04:46;100689.00;0.34;174.76;0.00;0.00;0.62;;;;;27.20;1.00;;;;;;2268990;61;1923;-84
2021/07/11 14:07:14;455629.00;1.52;785.47;0.00;0.00;0.62;;;;;27.80;1.00;;;;;;2268991;61;1128;-84
2021/07/11 14:09:40;0.00;0.00;0.62;0.00;0.00;0.62;;;;;28.10;1.00;;;;;;2268943;61;1084;-85
2021/07/11 14:12:08;117679.00;0.39;204.08;0.00;0.00;0.62;;;;;28.00;1.00;;;;;;2268939;61;1258;-84
2021/07/11 14:14:35;129674.00;0.43;224.77;0.00;0.00;0.62;;;;;28.10;1.00;;;;;;2268958;61;1163;-84
2021/07/11 14:17:02;163333.00;0.54;282.78;0.00;0.00;0.62;;;;;28.00;1.00;;;;;;2268807;61;1086;-85
2021/07/11 14:19:30;132015.00;0.44;228.80;0.00;0.00;0.62;;;;;28.30;1.00;;;;;;2268974;61;1083;-85
2021/07/11 14:21:57;209992.00;0.70;363.12;0.00;0.00;0.62;;;;;28.80;1.00;;;;;;2268936;61;1294;-85
2021/07/11 14:24:24;170327.00;0.57;294.83;0.00;0.00;0.62;;;;;28.70;1.00;;;;;;2268940;61;1003;-85
2021/07/11 14:26:52;38736.00;0.13;67.70;0.00;0.00;0.62;;;;;28.60;1.00;;;;;;2268893;61;1923;-85
2021/07/11 14:29:19;140151.00;0.47;242.83;0.00;0.00;0.62;;;;;28.60;1.00;;;;;;2268938;61;1095;-85
2021/07/11 14:31:46;137697.00;0.46;238.60;0.00;0.00;0.62;;;;;27.80;1.00;;;;;;2268896;61;1372;-83
2021/07/11 14:34:13;269798.00;0.90;466.00;47714.00;0.16;83.23;;;;;27.30;1.00;;;;;;2268909;61;1135;-86
2021/07/11 14:36:41;171510.00;0.57;296.87;0.00;0.00;0.62;;;;;27.50;1.00;;;;;;2268914;61;1071;-84
2021/07/11 14:39:09;163452.00;0.54;282.99;0.00;0.00;0.62;;;;;27.80;1.00;;;;;;2268805;61;1064;-85
2021/07/11 14:41:37;117368.00;0.39;203.54;0.00;0.00;0.62;;;;;28.00;1.00;;;;;;2268807;61;1384;-86
2021/07/11 14:44:05;176002.00;0.59;304.60;17117.00;0.06;30.28;;;;;28.30;1.00;;;;;;2268804;61;1130;-86
2021/07/11 14:46:31;179696.00;0.60;310.97;0.00;0.00;0.62;;;;;28.40;1.00;;;;;;2268754;61;1992;-86
2021/07/11 14:48:58;98358.00;0.33;170.74;0.00;0.00;0.62;;;;;28.50;1.00;;;;;;2268877;61;1233;-86
2021/07/11 14:51:25;130048.00;0.43;225.41;0.00;0.00;0.62;;;;;28.40;1.00;;;;;;2268719;61;1270;-86
2021/07/11 14:53:53;81136.00;0.27;141.00;0.00;0.00;0.62;;;;;28.10;1.00;;;;;;2268824;61;1140;-85
2021/07/11 14:56:20;155844.00;0.52;269.88;0.00;0.00;0.62;;;;;27.70;1.00;;;;;;2268677;61;1048;-84
2021/07/11 14:58:47;222934.00;0.74;385.39;0.00;0.00;0.62;;;;;27.30;1.00;;;;;;2268439;61;1092;-84
2021/07/11 15:01:14;14286.00;0.05;25.37;0.00;0.00;0.62;;;;;27.00;1.00;;;;;;2268790;61;1278;-85
2021/07/11 15:03:41;117285.00;0.39;203.40;0.00;0.00;0.62;;;;;27.30;1.00;;;;;;2268835;61;1131;-84
2021/07/11 15:06:08;272321.00;0.91;470.33;58134.00;0.19;101.25;;;;;27.30;1.00;;;;;;2268763;61;1990;-85
2021/07/11 15:08:35;123067.00;0.41;213.37;0.00;0.00;0.62;;;;;27.70;1.00;;;;;;2268800;61;1183;-84
2021/07/11 15:11:04;128690.00;0.43;223.07;0.00;0.00;0.62;;;;;27.80;1.00;;;;;;2268768;61;1363;-85
2021/07/11 15:13:32;208066.00;0.69;359.81;0.00;0.00;0.62;;;;;27.70;1.00;;;;;;2268815;61;1009;-84
2021/07/11 15:15:59;114191.00;0.38;198.06;0.00;0.00;0.62;;;;;27.00;1.00;;;;;;2268763;61;1115;-84
2021/07/11 15:18:26;75204.00;0.25;130.75;0.00;0.00;0.62;;;;;27.10;1.00;;;;;;2268765;61;1025;-85
2021/07/11 15:20:54;90521.00;0.30;157.21;0.00;0.00;0.62;;;;;26.60;1.00;;;;;;2268751;61;969;-84
2021/07/11 15:23:22;101885.00;0.34;176.83;0.00;0.00;0.62;;;;;26.50;1.00;;;;;;2268702;61;1189;-84
2021/07/11 15:25:49;141608.00;0.47;245.34;0.00;0.00;0.62;;;;;26.10;1.00;;;;;;2268719;61;2002;-85
2021/07/11 15:28:17;104176.00;0.35;180.78;0.00;0.00;0.62;;;;;26.10;1.00;;;;;;2268737;61;1306;-85
2021/07/11 15:30:45;128235.00;0.43;222.29;0.00;0.00;0.62;;;;;26.00;1.00;;;;;;2268748;61;927;-85
2021/07/11 15:33:15;74609.00;0.25;129.72;0.00;0.00;0.62;;;;;26.10;1.00;;;;;;2268716;61;1289;-85
2021/07/11 15:35:44;27749.00;0.09;48.69;0.00;0.00;0.62;;;;;26.60;1.00;;;;;;2268708;61;1146;-85
2021/07/11 15:38:12;92384.00;0.31;160.42;0.00;0.00;0.62;;;;;27.10;1.00;;;;;;2268636;61;928;-85
2021/07/11 15:40:40;21739.00;0.07;38.28;0.00;0.00;0.62;;;;;27.50;1.00;;;;;;2268511;61;1295;-86